Time;durP1;ratioP1;P1;durP2;ratioP2;P2;SDS_P1;SDS_P2;PMS_P1;PMS_P2;Temp;Humidity;BMP_temperature;BMP_pressure;BME280_temperature;BME280_humidity;BME280_pressure;Samples;Min_cycle;Max_cycle;Signal;HPM_P1;HPM_P2
2022/11/15 00:01:40;;;;;;;24.30;13.52;;;7.20;14.90;;;;;;5004119;28;20030;-78
2022/11/15 00:04:06;;;;;;;22.13;12.55;;;7.30;16.20;;;;;;5016254;28;20022;-78
2022/11/15 00:06:32;;;;;;;25.73;13.13;;;7.30;12.20;;;;;;5015577;28;20391;-78
2022/11/15 00:08:58;;;;;;;27.60;15.02;;;7.30;14.80;;;;;;5015596;28;20503;-78
2022/11/15 00:11:25;;;;;;;24.52;14.73;;;7.30;12.30;;;;;;5015876;28;20026;-78
2022/11/15 00:13:50;;;;;;;22.88;14.02;;;7.40;9.60;;;;;;5015770;28;20071;-78
2022/11/15 00:16:17;;;;;;;27.63;14.68;;;7.30;8.90;;;;;;5014774;28;20129;-78
2022/11/15 00:18:43;;;;;;;26.20;14.18;;;7.40;7.70;;;;;;5014626;28;20484;-78
2022/11/15 00:21:11;;;;;;;23.92;14.13;;;7.40;6.20;;;;;;5015270;28;20029;-78
2022/11/15 00:23:37;;;;;;;27.50;13.40;;;7.40;5.00;;;;;;5003835;28;20038;-77
2022/11/15 00:26:03;;;;;;;22.98;13.50;;;7.30;1.00;;;;;;4994649;28;20054;-78
2022/11/15 00:28:29;;;;;;;27.00;15.00;;;7.30;1.00;;;;;;4994731;28;20018;-78
2022/11/15 00:31:07;;;;;;;27.45;15.85;;;7.30;1.00;;;;;;4994906;28;20367;-78
2022/11/15 00:33:33;;;;;;;29.15;16.55;;;7.30;1.00;;;;;;4994669;28;20512;-78
2022/11/15 00:36:03;;;;;;;25.05;14.52;;;7.20;1.00;;;;;;4999743;28;20018;-78
2022/11/15 00:38:33;;;;;;;25.67;14.80;;;7.10;1.00;;;;;;5014692;28;20026;-77
2022/11/15 00:41:00;;;;;;;27.55;14.68;;;7.10;1.00;;;;;;5014619;28;20053;-78
2022/11/15 00:43:25;;;;;;;30.45;16.63;;;7.10;1.00;;;;;;4999112;28;20501;-78
2022/11/15 00:45:51;;;;;;;27.65;14.93;;;7.10;1.00;;;;;;5014197;28;20052;-78
2022/11/15 00:48:16;;;;;;;30.08;15.73;;;7.10;1.00;;;;;;5013877;28;20026;-78
2022/11/15 00:50:42;;;;;;;27.58;15.35;;;7.10;1.00;;;;;;5003557;28;20364;-78
2022/11/15 00:53:08;;;;;;;28.20;16.48;;;7.10;1.00;;;;;;5014071;28;20014;-78
2022/11/15 00:55:33;;;;;;;23.48;14.52;;;7.10;1.00;;;;;;5013916;28;20033;-78
2022/11/15 00:57:59;;;;;;;24.85;15.13;;;7.10;1.00;;;;;;5011873;28;20030;-78
2022/11/15 01:00:24;;;;;;;25.83;14.73;;;7.00;1.00;;;;;;4994599;28;20029;-78
2022/11/15 01:02:50;;;;;;;28.08;16.27;;;7.10;1.00;;;;;;4994508;28;20105;-78
2022/11/15 01:05:16;;;;;;;30.52;16.48;;;7.00;1.00;;;;;;5012804;28;20104;-78
2022/11/15 01:07:41;;;;;;;26.23;13.77;;;6.90;1.00;;;;;;5013910;28;20034;-77
2022/11/15 01:10:07;;;;;;;29.60;15.82;;;6.90;1.00;;;;;;4995810;28;20084;-78
2022/11/15 01:12:33;;;;;;;29.23;15.90;;;6.90;1.00;;;;;;5002761;28;20500;-78
2022/11/15 01:14:59;;;;;;;28.00;16.38;;;6.80;1.00;;;;;;4994091;28;20067;-78
2022/11/15 01:17:24;;;;;;;28.67;16.25;;;6.80;1.00;;;;;;5007508;28;20030;-78
2022/11/15 01:19:50;;;;;;;30.73;18.10;;;6.80;1.00;;;;;;4998801;28;20101;-77
2022/11/15 01:22:16;;;;;;;29.60;16.13;;;6.80;1.00;;;;;;4994908;28;20046;-78
2022/11/15 01:24:41;;;;;;;31.30;15.80;;;6.80;1.00;;;;;;4993873;28;20085;-78
2022/11/15 01:27:08;;;;;;;32.53;16.42;;;6.70;1.00;;;;;;4993638;28;20074;-78
2022/11/15 01:29:34;;;;;;;29.55;16.20;;;6.70;1.00;;;;;;4993881;28;20034;-78
2022/11/15 01:32:00;;;;;;;29.95;16.30;;;6.70;1.00;;;;;;4993797;28;20037;-78
2022/11/15 01:34:26;;;;;;;32.15;16.85;;;6.70;1.00;;;;;;5000555;28;20076;-78
2022/11/15 01:36:51;;;;;;;30.95;16.45;;;6.60;1.00;;;;;;5012945;28;20030;-78
2022/11/15 01:39:19;;;;;;;32.58;16.55;;;6.60;1.00;;;;;;5013563;28;20108;-78
2022/11/15 01:41:45;;;;;;;26.83;12.77;;;6.60;1.00;;;;;;5018821;28;20458;-78
2022/11/15 01:44:49;;;;;;;32.00;16.63;;;6.60;1.00;;;;;;5033229;28;20040;-78
2022/11/15 01:47:25;;;;;;;31.88;15.90;;;6.60;1.00;;;;;;5004369;28;20048;-76
2022/11/15 01:49:59;;;;;;;31.90;16.35;;;6.50;3.20;;;;;;4997634;28;20026;-76
2022/11/15 01:52:27;;;;;;;30.00;15.52;;;6.50;2.90;;;;;;4996074;28;20018;-76
2022/11/15 01:55:05;;;;;;;31.92;16.27;;;6.50;5.80;;;;;;4993211;28;20022;-78
2022/11/15 01:57:30;;;;;;;33.53;16.70;;;6.50;10.30;;;;;;4993342;28;20511;-78
2022/11/15 01:59:59;;;;;;;34.40;17.80;;;6.60;11.30;;;;;;4993030;28;20019;-78
2022/11/15 02:02:24;;;;;;;32.35;17.25;;;6.50;9.70;;;;;;4993189;28;20113;-78
2022/11/15 02:04:50;;;;;;;31.05;16.38;;;6.50;15.10;;;;;;4993406;28;20062;-78
2022/11/15 02:07:18;;;;;;;31.05;16.63;;;6.50;13.80;;;;;;4993126;28;20030;-78
2022/11/15 02:09:44;;;;;;;36.33;17.17;;;6.50;17.80;;;;;;5004941;28;20034;-78
2022/11/15 02:12:13;;;;;;;32.95;16.92;;;6.60;15.50;;;;;;4993739;28;20030;-78
2022/11/15 02:14:41;;;;;;;31.10;15.93;;;6.60;14.80;;;;;;4992883;28;20077;-78
2022/11/15 02:17:31;;;;;;;32.08;16.75;;;6.60;14.10;;;;;;4996289;28;20080;-78
2022/11/15 02:20:43;;;;;;;31.55;16.15;;;6.60;10.70;;;;;;4996926;28;20061;-78
2022/11/15 02:23:40;;;;;;;33.90;16.23;;;6.60;12.80;;;;;;4955681;29;20051;-78
2022/11/15 02:26:17;;;;;;;31.65;16.38;;;6.60;13.50;;;;;;4954786;29;20031;-78
2022/11/15 02:29:11;;;;;;;35.70;16.60;;;6.60;15.20;;;;;;4986576;28;20038;-78
2022/11/15 02:31:59;;;;;;;28.73;15.98;;;6.60;13.80;;;;;;5005907;28;20469;-77
2022/11/15 02:34:41;;;;;;;32.90;15.48;;;6.60;20.80;;;;;;4996202;28;20121;-78
2022/11/15 02:37:11;;;;;;;32.65;16.27;;;6.60;22.30;;;;;;4996169;28;20023;-78
2022/11/15 02:39:50;;;;;;;34.25;17.15;;;6.70;21.40;;;;;;5000879;28;20085;-78
2022/11/15 02:45:26;;;;;;;32.10;15.73;;;6.70;28.30;;;;;;4996543;28;20080;-78
2022/11/15 02:47:56;;;;;;;32.50;16.60;;;6.70;33.00;;;;;;4996130;28;20080;-78
2022/11/15 02:50:26;;;;;;;35.10;16.95;;;6.70;36.70;;;;;;4995822;28;20131;-78
2022/11/15 02:52:52;;;;;;;37.45;16.70;;;6.70;43.80;;;;;;4995791;28;20121;-78
2022/11/15 02:55:28;;;;;;;33.95;16.55;;;6.70;47.40;;;;;;5009215;28;20105;-78
2022/11/15 02:58:24;;;;;;;33.05;16.48;;;6.70;46.80;;;;;;5003673;28;20029;-77
2022/11/15 03:01:04;;;;;;;32.88;16.30;;;6.70;55.50;;;;;;4995514;28;20034;-78
2022/11/15 03:03:52;;;;;;;34.10;16.98;;;6.70;58.80;;;;;;5009328;28;20432;-78
2022/11/15 03:06:26;;;;;;;37.72;16.40;;;6.80;56.30;;;;;;5015480;28;20026;-78
2022/11/15 03:09:07;;;;;;;44.00;19.15;;;6.80;61.10;;;;;;5013802;28;20026;-78
2022/11/15 03:11:38;;;;;;;40.50;16.88;;;6.80;67.90;;;;;;5015312;28;20028;-77
2022/11/15 03:14:31;;;;;;;42.75;17.15;;;6.80;78.40;;;;;;5014913;28;20044;-77
2022/11/15 03:17:21;;;;;;;39.38;18.33;;;6.80;90.00;;;;;;5014599;28;20045;-78
2022/11/15 03:19:51;;;;;;;40.13;18.35;;;6.80;99.70;;;;;;4995570;28;20034;-78
2022/11/15 03:22:22;;;;;;;49.55;19.23;;;6.90;99.90;;;;;;4995694;28;20133;-78
2022/11/15 03:24:55;;;;;;;40.25;18.85;;;6.80;99.90;;;;;;4995281;28;20038;-78
2022/11/15 03:27:26;;;;;;;46.10;18.35;;;6.90;99.90;;;;;;4994104;28;20053;-78
2022/11/15 03:29:57;;;;;;;44.38;19.27;;;6.90;99.90;;;;;;5012245;28;20464;-78
2022/11/15 03:32:30;;;;;;;43.35;19.63;;;6.90;99.90;;;;;;5014467;28;20030;-78
2022/11/15 03:35:04;;;;;;;47.30;17.40;;;6.90;99.90;;;;;;5014495;28;20033;-77
2022/11/15 03:37:49;;;;;;;51.55;19.23;;;6.90;99.90;;;;;;5014494;28;20025;-78
2022/11/15 03:40:16;;;;;;;47.45;18.35;;;6.90;99.90;;;;;;5014535;28;20030;-78
2022/11/15 03:42:51;;;;;;;50.55;19.25;;;7.00;99.90;;;;;;5014665;28;20072;-78
2022/11/15 03:45:26;;;;;;;46.28;18.40;;;7.00;99.90;;;;;;5014215;28;20030;-78
2022/11/15 03:48:01;;;;;;;44.15;18.88;;;7.00;99.90;;;;;;5014623;28;20037;-78
2022/11/15 03:50:27;;;;;;;51.38;19.38;;;7.00;99.90;;;;;;5014404;28;20049;-78
2022/11/15 03:52:54;;;;;;;55.85;20.33;;;7.00;99.90;;;;;;5014212;28;20018;-78
2022/11/15 03:55:21;;;;;;;55.33;19.27;;;7.00;99.90;;;;;;5014232;28;20101;-76
2022/11/15 03:57:50;;;;;;;51.58;19.23;;;7.10;99.90;;;;;;5013732;28;20559;-76
2022/11/15 04:00:16;;;;;;;55.28;19.30;;;7.10;99.90;;;;;;5013884;28;20065;-76
2022/11/15 04:02:42;;;;;;;49.60;19.73;;;7.10;99.90;;;;;;5013719;28;20066;-76
2022/11/15 04:05:08;;;;;;;54.13;19.33;;;7.10;99.90;;;;;;5013668;28;20025;-76
2022/11/15 04:07:33;;;;;;;50.47;18.92;;;7.10;99.90;;;;;;5013548;28;20021;-76
2022/11/15 04:10:02;;;;;;;56.60;19.38;;;7.10;99.90;;;;;;5013620;28;20415;-76
2022/11/15 04:12:31;;;;;;;54.08;20.30;;;7.10;99.90;;;;;;5013592;28;20050;-76
2022/11/15 04:15:07;;;;;;;64.35;21.77;;;7.10;99.90;;;;;;5013159;28;20404;-76
2022/11/15 04:17:43;;;;;;;49.00;19.27;;;7.20;99.90;;;;;;5013510;28;20411;-76
2022/11/15 04:25:58;;;;;;;56.63;20.65;;;7.30;99.90;;;;;;4994282;28;20073;-76
2022/11/15 04:28:23;;;;;;;56.83;21.30;;;7.30;99.90;;;;;;4994053;28;20488;-76
2022/11/15 04:30:49;;;;;;;50.70;19.00;;;7.30;99.90;;;;;;4994231;28;20108;-76
2022/11/15 04:33:14;;;;;;;55.60;20.52;;;7.30;99.90;;;;;;4993954;28;20029;-76
2022/11/15 04:35:41;;;;;;;49.20;18.13;;;7.30;99.90;;;;;;4993839;28;20149;-77
2022/11/15 04:38:08;;;;;;;49.53;19.70;;;7.30;99.90;;;;;;4993559;28;20021;-76
2022/11/15 04:40:34;;;;;;;44.22;18.52;;;7.30;99.90;;;;;;4993580;28;20014;-77
2022/11/15 04:43:00;;;;;;;46.97;17.90;;;7.40;99.90;;;;;;4993448;28;20030;-77
2022/11/15 04:45:25;;;;;;;44.63;16.73;;;7.40;99.90;;;;;;4993540;28;20417;-77
2022/11/15 04:47:51;;;;;;;44.40;16.90;;;7.40;99.90;;;;;;4993440;28;20023;-77
2022/11/15 04:50:17;;;;;;;45.17;16.58;;;7.50;99.90;;;;;;4993256;28;20122;-76
2022/11/15 04:52:49;;;;;;;43.38;16.48;;;7.50;99.90;;;;;;5008408;28;20046;-76
2022/11/15 04:55:15;;;;;;;43.60;16.45;;;7.50;99.90;;;;;;5013252;28;20377;-77
2022/11/15 04:57:40;;;;;;;46.75;16.77;;;7.50;99.90;;;;;;5012907;28;20656;-77
2022/11/15 05:00:12;;;;;;;44.65;16.20;;;7.60;99.90;;;;;;5011288;28;20024;-76
2022/11/15 05:05:24;;;;;;;47.05;17.67;;;7.60;99.90;;;;;;4993423;28;20081;-76
2022/11/15 05:07:49;;;;;;;44.17;17.77;;;7.60;99.90;;;;;;4993344;28;20026;-77
2022/11/15 05:10:15;;;;;;;48.78;18.35;;;7.60;99.90;;;;;;4993140;28;20532;-77
2022/11/15 05:12:41;;;;;;;50.08;18.65;;;7.70;99.90;;;;;;4993094;28;20028;-76
2022/11/15 05:15:07;;;;;;;49.65;18.65;;;7.70;99.90;;;;;;4992937;28;20521;-77
2022/11/15 05:17:33;;;;;;;48.00;17.83;;;7.70;99.90;;;;;;4993001;28;20033;-76
2022/11/15 05:20:01;;;;;;;51.97;18.40;;;7.80;99.90;;;;;;4992799;28;20021;-76
2022/11/15 05:22:27;;;;;;;53.03;19.58;;;7.80;99.90;;;;;;4992914;28;20033;-76
2022/11/15 05:24:53;;;;;;;53.30;19.83;;;7.80;99.90;;;;;;5008128;28;20030;-76
2022/11/15 05:27:18;;;;;;;52.60;20.00;;;7.80;99.90;;;;;;5003090;28;20369;-76
2022/11/15 05:29:44;;;;;;;52.97;19.15;;;7.90;99.90;;;;;;5012433;28;20022;-77
2022/11/15 05:32:12;;;;;;;53.40;19.40;;;7.90;99.90;;;;;;5012517;28;20030;-76
2022/11/15 05:34:37;;;;;;;61.35;20.35;;;8.00;99.90;;;;;;5012396;28;20544;-76
2022/11/15 05:37:03;;;;;;;56.20;20.05;;;8.00;99.90;;;;;;4997273;28;20656;-76
2022/11/15 05:39:29;;;;;;;57.40;21.27;;;8.00;99.90;;;;;;4995435;28;20076;-76
2022/11/15 05:42:05;;;;;;;50.47;19.80;;;8.10;99.90;;;;;;4992552;28;20030;-76
2022/11/15 05:44:31;;;;;;;54.55;18.63;;;8.10;99.90;;;;;;4992412;28;20054;-76
2022/11/15 05:46:57;;;;;;;43.53;17.60;;;8.10;99.90;;;;;;4996966;28;20010;-76
2022/11/15 05:49:27;;;;;;;50.42;18.50;;;8.20;99.90;;;;;;5003363;28;20026;-76
2022/11/15 05:51:53;;;;;;;42.03;17.33;;;8.20;99.90;;;;;;4996447;28;20034;-76
2022/11/15 05:54:21;;;;;;;42.42;18.10;;;8.20;99.90;;;;;;5000437;28;20111;-76
2022/11/15 05:56:47;;;;;;;47.80;18.80;;;8.40;99.90;;;;;;5007272;28;20041;-76
2022/11/15 05:59:13;;;;;;;46.97;17.92;;;8.30;99.90;;;;;;4999981;28;20477;-76
2022/11/15 06:01:39;;;;;;;43.17;16.50;;;8.40;99.90;;;;;;4995526;28;20022;-76
2022/11/15 06:04:04;;;;;;;45.38;18.42;;;8.40;99.90;;;;;;4996311;28;20041;-76
2022/11/15 06:06:30;;;;;;;48.78;19.00;;;8.40;99.90;;;;;;5008940;28;20018;-76
2022/11/15 06:08:56;;;;;;;47.85;18.95;;;8.50;99.90;;;;;;5015925;28;20404;-76
2022/11/15 06:11:21;;;;;;;43.45;17.30;;;8.50;99.90;;;;;;4998428;28;20089;-76
2022/11/15 06:13:47;;;;;;;55.97;20.13;;;8.50;99.90;;;;;;4996238;28;20087;-76
2022/11/15 06:16:12;;;;;;;46.13;18.33;;;8.50;99.90;;;;;;5006734;28;20049;-76
2022/11/15 06:18:38;;;;;;;55.40;19.30;;;8.60;99.90;;;;;;5015678;28;20101;-76
2022/11/15 06:21:05;;;;;;;55.40;20.23;;;8.60;99.90;;;;;;5015677;28;20034;-76
2022/11/15 06:23:35;;;;;;;52.78;21.20;;;8.60;99.90;;;;;;5013452;28;20030;-77
2022/11/15 06:26:02;;;;;;;50.20;20.50;;;8.70;99.90;;;;;;5005582;28;20026;-77
2022/11/15 06:28:32;;;;;;;47.45;19.58;;;8.70;99.90;;;;;;5002135;28;20030;-77
2022/11/15 06:31:08;;;;;;;53.58;21.02;;;8.70;99.90;;;;;;5006030;28;20116;-77
2022/11/15 06:33:33;;;;;;;52.22;21.23;;;8.80;99.90;;;;;;5001492;28;20455;-77
2022/11/15 06:36:08;;;;;;;51.08;20.52;;;8.80;99.90;;;;;;5007570;28;20026;-77
2022/11/15 06:38:34;;;;;;;54.08;21.17;;;8.90;99.90;;;;;;5011681;28;20404;-77
2022/11/15 06:41:04;;;;;;;58.70;22.13;;;8.90;99.90;;;;;;5009334;28;20368;-77
2022/11/15 06:43:30;;;;;;;59.17;21.00;;;9.00;99.90;;;;;;4998692;28;20022;-77
2022/11/15 06:45:58;;;;;;;50.17;21.35;;;9.10;99.90;;;;;;4999263;28;20520;-77
2022/11/15 06:48:23;;;;;;;53.95;20.88;;;9.10;99.90;;;;;;5004073;28;20030;-77
2022/11/15 06:50:57;;;;;;;58.17;22.10;;;9.10;99.90;;;;;;5004119;28;20033;-77
2022/11/15 06:53:23;;;;;;;47.75;20.30;;;9.20;99.90;;;;;;5007699;28;20026;-77
2022/11/15 06:55:49;;;;;;;58.42;23.23;;;9.30;99.90;;;;;;5012690;28;20410;-77
2022/11/15 06:58:15;;;;;;;54.53;22.58;;;9.50;99.90;;;;;;5003856;28;20113;-77
2022/11/15 07:00:42;;;;;;;46.00;20.67;;;9.40;99.90;;;;;;5010581;28;20018;-77
2022/11/15 07:03:07;;;;;;;50.88;21.10;;;9.50;99.90;;;;;;5011744;28;20465;-77
2022/11/15 07:05:33;;;;;;;41.35;17.90;;;9.50;99.90;;;;;;5012534;28;20060;-77
2022/11/15 07:07:59;;;;;;;48.92;21.92;;;9.60;99.90;;;;;;5006519;28;20026;-77
2022/11/15 07:10:25;;;;;;;55.20;23.67;;;9.70;99.90;;;;;;4998267;28;20052;-77
2022/11/15 07:12:52;;;;;;;46.13;20.42;;;9.70;99.90;;;;;;5012101;28;20018;-77
2022/11/15 07:15:20;;;;;;;52.67;21.48;;;9.70;99.90;;;;;;5007809;28;20097;-77
2022/11/15 07:17:46;;;;;;;43.35;21.45;;;9.80;99.90;;;;;;5010561;28;20380;-77
2022/11/15 07:20:13;;;;;;;53.15;21.75;;;9.80;99.90;;;;;;5012638;28;20480;-77
2022/11/15 07:22:39;;;;;;;46.53;20.08;;;9.90;99.90;;;;;;5005824;28;20022;-77
2022/11/15 07:25:05;;;;;;;39.40;20.30;;;10.00;99.90;;;;;;5009157;28;20057;-77
2022/11/15 07:27:30;;;;;;;43.35;20.88;;;10.00;99.90;;;;;;5000028;28;20456;-77
2022/11/15 07:29:56;;;;;;;46.53;19.45;;;10.00;99.90;;;;;;5004359;28;20242;-77
2022/11/15 07:32:21;;;;;;;43.83;20.65;;;10.10;99.90;;;;;;5004180;28;20045;-77
2022/11/15 07:34:47;;;;;;;43.00;20.17;;;10.10;99.90;;;;;;5000539;28;20026;-77
2022/11/15 07:37:12;;;;;;;42.75;20.30;;;10.20;99.90;;;;;;5008235;28;20503;-77
2022/11/15 07:39:38;;;;;;;44.40;19.48;;;10.20;99.90;;;;;;5011680;28;20018;-77
2022/11/15 07:44:48;;;;;;;40.25;19.55;;;10.30;99.90;;;;;;4997156;28;20061;-77
2022/11/15 07:47:14;;;;;;;39.35;18.45;;;10.30;99.90;;;;;;4999358;28;20022;-77
2022/11/15 07:49:39;;;;;;;37.42;18.88;;;10.40;99.90;;;;;;5006231;28;20026;-77
2022/11/15 07:52:05;;;;;;;37.55;18.85;;;10.40;99.90;;;;;;5005590;28;20030;-77
2022/11/15 07:54:30;;;;;;;39.80;19.58;;;10.40;99.90;;;;;;5009170;28;20119;-77
2022/11/15 07:56:56;;;;;;;36.47;19.13;;;10.50;99.90;;;;;;4992369;28;20496;-77
2022/11/15 07:59:22;;;;;;;34.70;16.45;;;10.50;99.90;;;;;;5000929;28;20253;-77
2022/11/15 08:01:47;;;;;;;39.40;19.33;;;10.70;99.90;;;;;;5008571;28;20025;-77
2022/11/15 08:04:13;;;;;;;35.03;18.80;;;10.60;99.90;;;;;;5001687;28;20532;-77
2022/11/15 08:06:38;;;;;;;34.25;18.73;;;10.70;99.90;;;;;;4998644;28;20175;-77
2022/11/15 08:09:04;;;;;;;38.13;19.02;;;10.80;99.90;;;;;;4995074;28;20022;-77
2022/11/15 08:11:30;;;;;;;38.05;19.15;;;10.60;99.90;;;;;;5000587;28;20113;-77
2022/11/15 08:13:55;;;;;;;32.70;18.35;;;10.60;99.90;;;;;;4998417;28;20046;-77
2022/11/15 08:16:21;;;;;;;33.63;17.95;;;10.50;99.90;;;;;;4999401;28;20062;-77
2022/11/15 08:18:47;;;;;;;31.55;17.77;;;10.60;99.90;;;;;;5008326;28;20495;-77
2022/11/15 08:21:17;;;;;;;33.20;17.70;;;10.70;99.90;;;;;;4998619;28;20248;-77
2022/11/15 08:23:43;;;;;;;34.42;18.42;;;10.80;99.90;;;;;;5000314;28;20036;-77
2022/11/15 08:26:09;;;;;;;33.72;17.90;;;11.00;99.90;;;;;;4990636;28;20022;-77
2022/11/15 08:28:35;;;;;;;33.83;18.50;;;10.90;99.90;;;;;;4993920;28;21083;-77
2022/11/15 08:31:01;;;;;;;38.17;16.63;;;11.00;99.90;;;;;;4997832;28;20025;-77
2022/11/15 08:33:27;;;;;;;33.97;17.98;;;11.20;99.90;;;;;;4993041;28;20052;-77
2022/11/15 08:36:00;;;;;;;32.55;17.98;;;11.20;99.90;;;;;;4997973;28;20048;-77
2022/11/15 08:38:26;;;;;;;35.15;17.08;;;11.40;99.90;;;;;;4992155;28;20053;-77
2022/11/15 08:41:02;;;;;;;29.73;16.67;;;11.60;99.90;;;;;;4994232;28;20225;-77
2022/11/15 08:43:27;;;;;;;27.10;15.98;;;11.90;99.90;;;;;;4999609;28;20057;-77
2022/11/15 08:45:57;;;;;;;31.90;16.17;;;12.00;99.90;;;;;;4998208;28;20069;-77
2022/11/15 08:48:22;;;;;;;33.63;17.40;;;12.00;95.30;;;;;;4998138;28;20489;-77
2022/11/15 08:50:48;;;;;;;31.08;17.40;;;11.80;99.90;;;;;;4995742;28;20088;-77
2022/11/15 08:53:14;;;;;;;29.27;17.13;;;11.80;99.90;;;;;;4996916;28;20488;-77
2022/11/15 08:55:40;;;;;;;30.90;17.33;;;11.80;99.90;;;;;;4995530;28;20085;-77
2022/11/15 08:58:06;;;;;;;34.85;17.38;;;11.70;99.90;;;;;;4994139;28;20477;-77
2022/11/15 09:00:33;;;;;;;31.67;17.20;;;11.80;99.90;;;;;;4994759;28;20026;-77
2022/11/15 09:02:59;;;;;;;28.67;16.50;;;12.00;94.10;;;;;;4992615;28;20117;-77
2022/11/15 09:05:25;;;;;;;30.92;16.27;;;12.30;63.90;;;;;;4998960;28;20041;-77
2022/11/15 09:07:54;;;;;;;29.00;17.33;;;12.50;44.60;;;;;;5000807;28;20220;-77
2022/11/15 09:10:20;;;;;;;30.27;17.27;;;12.70;29.90;;;;;;5007784;28;20353;-77
2022/11/15 09:12:48;;;;;;;26.33;15.90;;;12.40;25.90;;;;;;5009936;28;20037;-77
2022/11/15 09:15:14;;;;;;;25.02;14.80;;;12.30;36.60;;;;;;4993738;28;20216;-77
2022/11/15 09:17:40;;;;;;;30.00;16.42;;;12.60;27.40;;;;;;4995050;28;20045;-77
2022/11/15 09:20:06;;;;;;;27.23;15.82;;;12.80;16.80;;;;;;5006564;28;20046;-77
2022/11/15 09:22:32;;;;;;;25.27;15.90;;;12.80;6.70;;;;;;4991918;28;20497;-77
2022/11/15 09:24:58;;;;;;;27.77;16.08;;;12.70;10.50;;;;;;5005382;28;20102;-77
2022/11/15 09:27:28;;;;;;;26.65;15.32;;;12.60;3.20;;;;;;5006109;28;20025;-77
2022/11/15 09:29:53;;;;;;;;;;;12.50;6.80;;;;;;5010874;28;20097;-77
2022/11/15 09:32:19;;;;;;;26.42;14.10;;;12.40;8.60;;;;;;5014760;28;20009;-77
2022/11/15 09:34:45;;;;;;;26.08;16.02;;;12.50;7.70;;;;;;5016629;28;20017;-77
2022/11/15 09:37:12;;;;;;;25.40;15.60;;;12.30;6.90;;;;;;5016467;28;20026;-77
2022/11/15 09:39:37;;;;;;;24.23;14.50;;;12.10;18.20;;;;;;5007647;28;20045;-77
2022/11/15 09:42:26;;;;;;;27.35;16.38;;;12.30;12.90;;;;;;5000964;28;20504;-77
2022/11/15 09:45:20;;;;;;;27.23;14.95;;;12.50;10.80;;;;;;4974280;28;20043;-77
2022/11/15 09:48:14;;;;;;;39.28;15.48;;;12.50;4.90;;;;;;5002926;28;20025;-77
2022/11/15 09:50:42;;;;;;;24.00;15.13;;;12.50;8.70;;;;;;4997979;28;20022;-77
2022/11/15 09:53:25;;;;;;;27.08;14.57;;;12.40;10.90;;;;;;4998200;28;20484;-77
2022/11/15 09:56:00;;;;;;;24.40;14.48;;;12.20;12.60;;;;;;5001455;28;20080;-77
2022/11/15 09:58:46;;;;;;;25.63;14.70;;;12.20;15.90;;;;;;5008417;28;20148;-77
2022/11/15 10:01:25;;;;;;;22.77;14.23;;;12.20;15.00;;;;;;5005606;28;20042;-77
2022/11/15 10:03:50;;;;;;;28.08;15.05;;;12.20;14.90;;;;;;5009789;28;20065;-77
2022/11/15 10:06:24;;;;;;;25.38;15.20;;;12.20;10.00;;;;;;5005138;28;20054;-77
2022/11/15 10:08:53;;;;;;;26.05;15.35;;;12.30;10.70;;;;;;5007365;28;20028;-77
2022/11/15 10:11:22;;;;;;;29.00;15.93;;;12.40;6.50;;;;;;5005545;28;20054;-77
2022/11/15 10:13:50;;;;;;;26.83;14.93;;;12.50;1.00;;;;;;5005006;28;20385;-77
2022/11/15 10:16:35;;;;;;;22.75;13.95;;;12.40;1.00;;;;;;5008981;28;20507;-77
2022/11/15 10:19:30;;;;;;;28.10;15.32;;;12.40;1.00;;;;;;5003724;28;20030;-78
2022/11/15 10:22:04;;;;;;;24.65;15.85;;;12.40;1.00;;;;;;5005843;28;20030;-78
2022/11/15 10:24:35;;;;;;;26.17;15.90;;;12.50;4.60;;;;;;5004188;28;20034;-77
2022/11/15 10:27:00;;;;;;;25.98;14.93;;;12.60;1.00;;;;;;5011908;28;20046;-78
2022/11/15 10:29:26;;;;;;;27.58;15.35;;;12.60;1.00;;;;;;5006453;28;20022;-77
2022/11/15 10:31:52;;;;;;;25.98;14.73;;;12.60;1.00;;;;;;5009379;28;20061;-78
2022/11/15 10:34:20;;;;;;;24.35;13.85;;;12.70;1.00;;;;;;5004215;28;20029;-77
2022/11/15 10:36:53;;;;;;;25.95;15.05;;;12.80;1.00;;;;;;5005156;28;20400;-77
2022/11/15 10:39:18;;;;;;;22.60;14.30;;;13.10;1.00;;;;;;5000794;28;20030;-77
2022/11/15 10:41:44;;;;;;;24.70;14.27;;;13.20;1.00;;;;;;5006045;28;20026;-78
2022/11/15 10:44:23;;;;;;;23.83;14.88;;;13.10;1.00;;;;;;5005388;28;20387;-78
2022/11/15 10:47:06;;;;;;;24.50;13.95;;;13.20;1.00;;;;;;5011627;28;20022;-78
2022/11/15 10:49:33;;;;;;;21.70;13.35;;;13.20;1.00;;;;;;5000863;28;20027;-78
2022/11/15 10:52:04;;;;;;;21.85;13.45;;;13.10;1.00;;;;;;5002330;28;20397;-78
2022/11/15 10:54:39;;;;;;;26.40;14.27;;;12.90;1.00;;;;;;5000062;28;20025;-78
2022/11/15 10:57:14;;;;;;;21.75;13.40;;;13.00;1.00;;;;;;5014171;28;20033;-78
2022/11/15 10:59:48;;;;;;;23.45;13.70;;;12.90;1.00;;;;;;5000582;28;20047;-78
2022/11/15 11:02:37;;;;;;;20.02;13.10;;;12.70;1.00;;;;;;5004315;28;20072;-78
2022/11/15 11:05:29;;;;;;;22.17;13.23;;;12.70;1.00;;;;;;5007297;28;20029;-78
2022/11/15 11:08:18;;;;;;;21.80;12.80;;;12.80;1.00;;;;;;5002859;28;20550;-78
2022/11/15 11:10:58;;;;;;;21.30;12.90;;;12.80;1.00;;;;;;5000307;28;20046;-78
2022/11/15 11:13:29;;;;;;;16.45;11.02;;;12.80;1.00;;;;;;4999766;28;20018;-78
2022/11/15 11:16:13;;;;;;;22.90;12.77;;;12.90;1.00;;;;;;4993819;28;20077;-78
2022/11/15 11:18:51;;;;;;;24.85;12.02;;;12.80;1.00;;;;;;4996432;28;20433;-78
2022/11/15 11:21:37;;;;;;;20.02;12.02;;;12.90;1.00;;;;;;5001658;28;20113;-78
2022/11/15 11:24:15;;;;;;;20.13;11.93;;;13.10;1.00;;;;;;4996374;28;20041;-78
2022/11/15 11:27:12;;;;;;;20.35;11.18;;;13.00;1.00;;;;;;4995759;28;20023;-78
2022/11/15 11:30:01;;;;;;;22.13;11.45;;;13.00;1.00;;;;;;4996121;28;20031;-78
2022/11/15 11:33:00;;;;;;;16.63;10.73;;;13.00;1.00;;;;;;5002751;28;20022;-78
2022/11/15 11:35:38;;;;;;;16.23;10.18;;;13.10;1.00;;;;;;5006693;28;20034;-78
2022/11/15 11:38:30;;;;;;;16.42;10.80;;;13.20;1.00;;;;;;5008053;28;20073;-78
2022/11/15 11:41:34;;;;;;;16.55;9.80;;;13.30;1.00;;;;;;5003269;28;20030;-78
2022/11/15 11:44:22;;;;;;;17.38;10.55;;;13.40;1.00;;;;;;5005578;28;20531;-78
2022/11/15 11:46:53;;;;;;;14.32;9.10;;;13.50;1.00;;;;;;4996229;28;20093;-78
2022/11/15 11:49:21;;;;;;;15.43;9.13;;;13.50;1.00;;;;;;5010565;28;20053;-78
2022/11/15 11:51:56;;;;;;;15.15;9.48;;;13.60;1.00;;;;;;5003766;28;20060;-78
2022/11/15 11:54:40;;;;;;;15.05;9.00;;;13.60;1.00;;;;;;5005511;28;20038;-78
2022/11/15 11:57:16;;;;;;;14.05;8.88;;;13.40;1.00;;;;;;4996682;28;20393;-78
2022/11/15 11:59:48;;;;;;;14.65;8.23;;;13.60;1.00;;;;;;5001322;28;20469;-78
2022/11/15 12:02:28;;;;;;;15.30;8.93;;;13.50;1.00;;;;;;5001893;28;20489;-78
2022/11/15 12:05:02;;;;;;;14.60;8.60;;;13.30;1.00;;;;;;5007274;28;20030;-78
2022/11/15 12:07:33;;;;;;;14.25;9.00;;;13.60;1.00;;;;;;5008353;28;20479;-78
2022/11/15 12:10:16;;;;;;;12.90;8.05;;;13.80;1.00;;;;;;5001090;28;20393;-78
2022/11/15 12:12:54;;;;;;;12.10;7.72;;;13.90;1.00;;;;;;5000658;28;20025;-78
2022/11/15 12:15:31;;;;;;;11.68;7.63;;;14.10;1.00;;;;;;4999247;28;20406;-78
2022/11/15 12:17:59;;;;;;;12.07;6.72;;;14.20;1.00;;;;;;5007174;28;20022;-78
2022/11/15 12:20:34;;;;;;;7.13;6.00;;;14.20;1.00;;;;;;5001261;28;20471;-78
2022/11/15 12:23:15;;;;;;;9.90;6.00;;;14.20;1.00;;;;;;4997967;28;20022;-78
2022/11/15 12:25:57;;;;;;;7.97;5.30;;;13.70;1.00;;;;;;4999295;28;20038;-78
2022/11/15 12:28:35;;;;;;;7.38;5.25;;;13.60;1.00;;;;;;5000304;28;20036;-78
2022/11/15 12:31:16;;;;;;;8.55;4.95;;;13.50;1.00;;;;;;5002134;28;20058;-78
2022/11/15 12:33:47;;;;;;;7.45;4.78;;;13.50;1.00;;;;;;5000727;28;20030;-78
2022/11/15 12:36:22;;;;;;;10.25;5.22;;;13.50;1.00;;;;;;4998152;28;20030;-78
2022/11/15 12:38:55;;;;;;;9.38;5.85;;;13.50;1.00;;;;;;4994217;28;20061;-78
2022/11/15 12:41:41;;;;;;;10.05;6.10;;;13.40;1.00;;;;;;5008349;28;20029;-79
2022/11/15 12:44:12;;;;;;;8.18;5.32;;;13.40;1.00;;;;;;5001240;28;20472;-78
2022/11/15 12:46:41;;;;;;;9.82;5.72;;;13.30;1.00;;;;;;5012521;28;20022;-78
2022/11/15 12:49:28;;;;;;;8.57;5.28;;;13.20;1.00;;;;;;5012791;28;20061;-78
2022/11/15 12:51:59;;;;;;;9.65;5.40;;;13.00;1.00;;;;;;5010550;28;20455;-78
2022/11/15 12:54:26;;;;;;;9.18;5.93;;;13.00;1.00;;;;;;4998294;28;20441;-78
2022/11/15 12:57:03;;;;;;;10.32;5.90;;;12.90;1.00;;;;;;5006380;28;20269;-78
2022/11/15 13:00:01;;;;;;;7.30;5.40;;;12.90;1.00;;;;;;5000944;28;20481;-78
2022/11/15 13:02:27;;;;;;;7.25;4.57;;;12.70;1.00;;;;;;5001461;28;20052;-78
2022/11/15 13:04:55;;;;;;;6.15;4.15;;;12.70;1.00;;;;;;5001858;28;20384;-78
2022/11/15 13:07:39;;;;;;;5.47;4.00;;;12.50;1.00;;;;;;5000946;28;20085;-78
2022/11/15 13:10:13;;;;;;;5.95;4.18;;;12.50;1.00;;;;;;5007586;28;20661;-78
2022/11/15 13:12:44;;;;;;;3.78;3.05;;;12.30;1.00;;;;;;5005422;28;20068;-78